Time;durP1;ratioP1;P1;durP2;ratioP2;P2;SDS_P1;SDS_P2;PMS_P1;PMS_P2;Temp;Humidity;BMP_temperature;BMP_pressure;BME280_temperature;BME280_humidity;BME280_pressure;Samples;Min_cycle;Max_cycle;Signal;HPM_P1;HPM_P2
2022/09/05 22:11:49;;;;;;;;;11.25;10.00;;;;;23.44;62.34;100645.84;4942998;28;45559;-61
2022/09/05 22:14:16;;;;;;;;;9.00;9.00;;;;;23.45;62.54;100657.44;4973991;28;45431;-61
2022/09/05 22:16:46;;;;;;;;;13.25;11.75;;;;;23.45;62.30;100662.81;4974932;28;45598;-61
2022/09/05 22:19:21;;;;;;;;;12.25;10.00;;;;;23.41;62.59;100654.19;4974814;28;45349;-61
2022/09/05 22:21:49;;;;;;;;;10.75;10.00;;;;;23.47;61.99;100660.84;4975356;28;45771;-61
2022/09/05 22:24:15;;;;;;;;;10.50;10.50;;;;;23.46;62.12;100660.00;4975333;28;45467;-61
2022/09/05 22:26:43;;;;;;;;;10.50;9.00;;;;;23.40;61.89;100657.00;4975483;28;45465;-61
2022/09/05 22:29:16;;;;;;;;;9.75;9.75;;;;;23.43;61.75;100657.59;4978105;28;45466;-62
2022/09/05 22:31:42;;;;;;;;;11.25;10.00;;;;;23.41;61.19;100656.88;4978617;28;45436;-61
2022/09/05 22:34:08;;;;;;;;;7.25;7.25;;;;;23.40;61.57;100655.19;4978776;28;45372;-61
2022/09/05 22:36:34;;;;;;;;;9.00;9.00;;;;;23.35;61.73;100658.28;4978439;28;45487;-61
2022/09/05 22:39:00;;;;;;;;;11.00;9.00;;;;;23.32;61.63;100663.91;4960851;28;47039;-61
2022/09/05 22:41:27;;;;;;;;;10.75;9.50;;;;;23.31;61.64;100664.03;4978641;28;45406;-62
2022/09/05 22:43:53;;;;;;;;;8.50;8.50;;;;;23.30;61.52;100662.34;4978367;28;45380;-61
2022/09/05 22:46:18;;;;;;;;;10.50;10.00;;;;;23.30;61.57;100671.25;4978579;28;45463;-61
2022/09/05 22:48:43;;;;;;;;;12.50;9.50;;;;;23.28;61.12;100669.69;4978349;28;46176;-62
2022/09/05 22:51:08;;;;;;;;;9.00;9.00;;;;;23.21;61.04;100671.19;4978490;28;45451;-62
2022/09/05 22:53:34;;;;;;;;;9.50;9.50;;;;;23.20;60.79;100672.19;4978450;28;45479;-63
2022/09/05 22:56:02;;;;;;;;;9.00;8.50;;;;;23.14;60.66;100673.56;4978379;28;45499;-62
2022/09/05 22:58:28;;;;;;;;;9.00;8.25;;;;;23.10;60.99;100672.13;4978126;28;45448;-62
2022/09/05 23:00:54;;;;;;;;;8.50;8.50;;;;;23.07;60.63;100667.03;4978278;28;45422;-62
2022/09/05 23:03:19;;;;;;;;;7.75;7.75;;;;;23.05;60.50;100669.84;4978369;28;45474;-62
2022/09/05 23:05:45;;;;;;;;;9.00;7.25;;;;;23.02;60.41;100672.78;4978231;28;45466;-62
2022/09/05 23:08:10;;;;;;;;;7.00;7.00;;;;;22.99;60.58;100658.78;4960376;28;47158;-63
2022/09/05 23:10:36;;;;;;;;;4.25;4.25;;;;;22.97;59.95;100656.25;4978047;28;45682;-63
2022/09/05 23:13:04;;;;;;;;;6.00;6.00;;;;;22.95;59.72;100658.19;4979008;28;45555;-62
2022/09/05 23:15:29;;;;;;;;;5.00;5.00;;;;;22.92;59.64;100663.81;4977881;28;45582;-62
2022/09/05 23:17:57;;;;;;;;;5.75;5.75;;;;;22.89;59.28;100661.38;4978031;28;45983;-62
2022/09/05 23:20:24;;;;;;;;;6.00;4.50;;;;;22.86;59.50;100665.22;4977981;28;45425;-63
2022/09/05 23:22:50;;;;;;;;;2.00;2.00;;;;;22.81;59.21;100672.78;4960612;28;45417;-63
2022/09/05 23:25:16;;;;;;;;;5.00;4.50;;;;;22.81;59.42;100670.09;4977688;28;45658;-62
2022/09/05 23:27:41;;;;;;;;;5.75;4.00;;;;;22.82;59.38;100673.63;4977690;28;45432;-62
2022/09/05 23:30:07;;;;;;;;;3.00;3.00;;;;;22.80;59.50;100681.81;4977860;28;45439;-62
2022/09/05 23:32:33;;;;;;;;;3.00;3.00;;;;;22.79;59.30;100665.84;4977740;28;45385;-62
2022/09/05 23:34:58;;;;;;;;;5.25;5.25;;;;;22.77;59.38;100674.03;4977707;28;45579;-62
2022/09/05 23:37:24;;;;;;;;;6.00;4.75;;;;;22.77;59.10;100675.84;4977669;28;45961;-61
2022/09/05 23:39:49;;;;;;;;;5.00;5.00;;;;;22.76;59.31;100677.69;4976418;28;45513;-62
2022/09/05 23:42:14;;;;;;;;;5.00;5.00;;;;;22.75;59.27;100675.13;4977899;28;45409;-62
2022/09/05 23:44:40;;;;;;;;;4.00;4.00;;;;;22.67;59.47;100665.91;4977501;28;45452;-62
2022/09/05 23:47:05;;;;;;;;;4.00;4.00;;;;;22.70;59.54;100679.06;4977364;28;45499;-62
2022/09/05 23:49:31;;;;;;;;;4.00;4.00;;;;;22.72;59.62;100676.25;4977376;28;45490;-61
2022/09/05 23:51:57;;;;;;;;;5.50;5.50;;;;;22.67;59.63;100673.94;4977670;28;45504;-61
2022/09/05 23:54:22;;;;;;;;;6.50;5.00;;;;;22.64;60.21;100676.88;4977669;28;45601;-61
2022/09/05 23:56:47;;;;;;;;;6.25;6.25;;;;;22.66;60.01;100685.66;4977353;28;45428;-61
2022/09/05 23:59:13;;;;;;;;;6.00;6.00;;;;;22.68;60.04;100691.75;4977378;28;45499;-62
